Time;durP1;ratioP1;P1;durP2;ratioP2;P2;SDS_P1;SDS_P2;PMS_P1;PMS_P2;Temp;Humidity;BMP_temperature;BMP_pressure;BME280_temperature;BME280_humidity;BME280_pressure;Samples;Min_cycle;Max_cycle;Signal;HPM_P1;HPM_P2
2023/04/01 00:01:19;;;;;;;12.18;2.88;;;;;;;5.77;100.00;99875.00;5097037;28;20047;-92
2023/04/01 00:03:46;;;;;;;14.75;3.22;;;;;;;5.79;100.00;99879.25;5097557;28;20043;-92
2023/04/01 00:06:16;;;;;;;14.23;3.03;;;;;;;5.95;100.00;99916.00;5096509;28;20087;-92
2023/04/01 00:08:44;;;;;;;9.45;2.28;;;;;;;5.36;100.00;99828.63;5094717;28;20112;-92
2023/04/01 00:11:11;;;;;;;12.15;2.67;;;;;;;5.47;100.00;99860.34;5117500;27;20080;-92
2023/04/01 00:13:38;;;;;;;13.07;2.70;;;;;;;5.38;100.00;99877.91;5108819;28;20043;-92
2023/04/01 00:16:05;;;;;;;7.10;2.22;;;;;;;5.74;100.00;99895.88;5094276;28;20097;-92
2023/04/01 00:18:47;;;;;;;12.45;2.35;;;;;;;5.60;100.00;99889.38;5095141;28;20070;-92
2023/04/01 00:21:14;;;;;;;8.73;2.35;;;;;;;5.53;100.00;99861.88;5112958;28;20134;-92
2023/04/01 00:23:41;;;;;;;8.93;2.92;;;;;;;5.62;100.00;99865.94;5117324;28;20047;-93
2023/04/01 00:26:08;;;;;;;9.65;2.35;;;;;;;5.43;100.00;99842.28;5084801;28;20051;-92
2023/04/01 00:28:35;;;;;;;10.45;2.20;;;;;;;5.40;100.00;99848.44;5098942;28;20461;-92
2023/04/01 00:31:10;;;;;;;6.57;2.17;;;;;;;5.62;100.00;99897.94;5098326;28;20085;-92
2023/04/01 00:33:38;;;;;;;10.82;2.25;;;;;;;5.85;100.00;99935.38;5097951;28;20052;-92
2023/04/01 00:36:23;;;;;;;8.55;2.50;;;;;;;5.19;100.00;99829.16;5098470;28;20052;-92
2023/04/01 00:38:50;;;;;;;10.40;2.70;;;;;;;5.57;100.00;99880.81;5114852;28;20048;-92
2023/04/01 00:41:18;;;;;;;10.77;2.35;;;;;;;6.02;100.00;99929.66;5097647;28;20040;-91
2023/04/01 00:43:50;;;;;;;10.50;2.60;;;;;;;6.13;100.00;99934.53;5095948;28;20069;-92
2023/04/01 00:46:17;;;;;;;10.23;2.85;;;;;;;6.02;100.00;99938.31;5086850;28;20052;-93
2023/04/01 00:48:49;;;;;;;15.07;3.40;;;;;;;5.73;100.00;99866.44;5096681;28;20047;-93
2023/04/01 00:51:20;;;;;;;13.10;2.85;;;;;;;5.50;100.00;99860.22;5087896;28;20044;-92
2023/04/01 00:53:51;;;;;;;13.85;3.08;;;;;;;5.74;100.00;99906.25;5111799;27;20080;-91
2023/04/01 00:56:26;;;;;;;9.88;3.38;;;;;;;5.73;100.00;99931.38;5089620;28;20075;-92
2023/04/01 00:59:08;;;;;;;12.90;2.65;;;;;;;5.18;100.00;99881.13;5108791;28;20051;-92
2023/04/01 01:01:35;;;;;;;10.95;2.45;;;;;;;5.26;100.00;99910.31;5095929;28;20453;-92
2023/04/01 01:04:03;;;;;;;9.73;2.55;;;;;;;5.53;100.00;99921.59;5097514;28;20051;-92
2023/04/01 01:06:57;;;;;;;8.43;1.95;;;;;;;5.76;100.00;99957.28;5097295;28;20051;-92
2023/04/01 01:09:41;;;;;;;11.70;3.20;;;;;;;5.41;100.00;99890.81;5097533;28;20048;-92
2023/04/01 01:12:13;;;;;;;;;;;;;;;5.85;100.00;99957.00;5097177;28;20089;-92
2023/04/01 01:14:55;;;;;;;10.35;2.33;;;;;;;5.75;100.00;99960.75;5096908;28;19966;-92
2023/04/01 01:17:27;;;;;;;12.55;2.85;;;;;;;5.72;100.00;99960.88;5096596;28;20048;-91
2023/04/01 01:20:23;;;;;;;14.02;2.85;;;;;;;5.64;100.00;99970.63;5097056;28;20070;-92
2023/04/01 01:23:13;;;;;;;17.15;2.92;;;;;;;5.61;100.00;99952.53;5074651;28;20117;-91
2023/04/01 01:26:12;;;;;;;14.95;2.70;;;;;;;5.69;100.00;99966.16;5096471;28;20048;-91
2023/04/01 01:29:09;;;;;;;11.48;2.10;;;;;;;5.64;100.00;99974.06;5069711;28;20043;-91
2023/04/01 01:31:58;;;;;;;11.40;2.17;;;;;;;5.69;100.00;99974.78;5106291;28;20048;-91
2023/04/01 01:34:40;;;;;;;9.93;2.65;;;;;;;5.32;100.00;99920.50;5076712;28;20055;-92
2023/04/01 01:37:13;;;;;;;10.50;2.60;;;;;;;5.32;100.00;99946.44;5079762;28;20048;-91
2023/04/01 01:39:43;;;;;;;11.10;2.55;;;;;;;5.69;100.00;99984.34;5107445;28;20127;-91
2023/04/01 01:42:14;;;;;;;9.25;2.30;;;;;;;5.47;100.00;99959.00;5095490;28;20043;-91
2023/04/01 01:44:44;;;;;;;10.75;2.85;;;;;;;5.20;100.00;99906.13;5096233;28;20051;-91
2023/04/01 01:47:13;;;;;;;13.00;3.00;;;;;;;5.51;100.00;99951.97;5095815;28;20051;-90
2023/04/01 01:49:43;;;;;;;10.10;2.80;;;;;;;5.40;100.00;99941.91;5113635;28;20120;-90
2023/04/01 01:52:11;;;;;;;16.15;2.72;;;;;;;5.19;100.00;99907.03;5094699;28;20100;-91
2023/04/01 01:54:50;;;;;;;12.35;2.83;;;;;;;5.27;100.00;99917.19;5095748;28;20051;-91
2023/04/01 01:57:23;;;;;;;13.48;2.88;;;;;;;5.45;100.00;99965.13;5095823;28;20105;-91
2023/04/01 01:59:55;;;;;;;10.27;2.65;;;;;;;5.36;100.00;99937.66;5095674;28;20043;-91
2023/04/01 02:02:23;;;;;;;14.52;3.67;;;;;;;5.54;100.00;99976.97;5109563;28;20521;-92
2023/04/01 02:04:52;;;;;;;19.45;3.63;;;;;;;5.18;100.00;99926.06;5096081;28;20106;-91
2023/04/01 02:07:25;;;;;;;14.27;2.83;;;;;;;5.56;100.00;99993.38;5095616;28;20054;-91
2023/04/01 02:09:52;;;;;;;19.02;4.22;;;;;;;5.31;100.00;99979.34;5081948;28;20096;-91
2023/04/01 02:12:20;;;;;;;16.13;3.80;;;;;;;5.13;100.00;99922.75;5112775;28;20040;-91
2023/04/01 02:15:06;;;;;;;13.00;3.60;;;;;;;5.61;100.00;100010.53;5095468;28;20659;-91
2023/04/01 02:17:37;;;;;;;9.13;2.70;;;;;;;5.26;100.00;99936.25;5095033;28;20059;-91
2023/04/01 02:20:13;;;;;;;13.30;4.15;;;;;;;5.72;100.00;100012.81;5113401;28;20131;-91
2023/04/01 02:22:44;;;;;;;13.32;4.00;;;;;;;5.56;100.00;99977.78;5095771;28;20457;-92
2023/04/01 02:25:14;;;;;;;14.60;3.47;;;;;;;5.69;100.00;100012.91;5096124;28;20044;-90
2023/04/01 02:27:43;;;;;;;18.58;4.00;;;;;;;5.71;100.00;100026.69;5098022;28;20063;-89
2023/04/01 02:30:11;;;;;;;19.45;3.63;;;;;;;5.28;100.00;99978.59;5098072;28;20105;-91
2023/04/01 02:32:39;;;;;;;13.43;2.97;;;;;;;5.32;100.00;99980.19;5115319;28;20096;-90
2023/04/01 02:35:11;;;;;;;10.20;2.67;;;;;;;5.65;100.00;100029.47;5099414;28;20415;-90
2023/04/01 02:37:42;;;;;;;10.97;2.70;;;;;;;5.63;100.00;100016.53;5117275;28;20052;-91
2023/04/01 02:40:12;;;;;;;12.75;3.15;;;;;;;5.62;100.00;100009.63;5116190;28;20097;-90
2023/04/01 02:42:39;;;;;;;14.32;2.90;;;;;;;5.64;100.00;100000.03;5098232;28;20047;-89
2023/04/01 02:45:07;;;;;;;12.57;3.60;;;;;;;5.56;100.00;100007.22;5085457;28;20525;-90
2023/04/01 02:47:34;;;;;;;17.30;4.28;;;;;;;5.20;100.00;99988.31;5097650;28;20449;-90
2023/04/01 02:50:00;;;;;;;19.23;4.38;;;;;;;5.40;100.00;100030.16;5098397;28;20048;-90
2023/04/01 02:52:29;;;;;;;13.90;3.65;;;;;;;5.38;100.00;100002.53;5098649;28;20043;-91
2023/04/01 02:54:56;;;;;;;11.98;3.90;;;;;;;5.59;100.00;100030.47;5091958;28;20048;-91
2023/04/01 02:57:24;;;;;;;11.13;3.20;;;;;;;5.73;100.00;100056.06;5103764;28;20048;-91
2023/04/01 02:59:51;;;;;;;12.80;2.95;;;;;;;5.13;100.00;99972.94;5078040;28;20062;-91
2023/04/01 03:02:18;;;;;;;15.82;3.90;;;;;;;5.29;100.00;99991.53;5091953;28;20047;-92
2023/04/01 03:04:45;;;;;;;11.18;3.00;;;;;;;5.35;100.00;100000.88;5088668;28;20047;-91
2023/04/01 03:07:12;;;;;;;11.05;2.78;;;;;;;5.23;100.00;99975.25;5098164;28;20048;-90
2023/04/01 03:09:39;;;;;;;9.00;2.60;;;;;;;5.84;100.00;100053.16;5097780;28;20059;-90
2023/04/01 03:12:06;;;;;;;9.43;2.63;;;;;;;5.81;100.00;100055.88;5100202;28;20048;-91
2023/04/01 03:14:33;;;;;;;11.25;2.97;;;;;;;5.28;100.00;99976.00;5115907;28;20514;-90
2023/04/01 03:17:00;;;;;;;10.65;2.83;;;;;;;5.65;100.00;100056.28;5104761;27;20077;-91
2023/04/01 03:19:27;;;;;;;9.35;2.30;;;;;;;5.54;100.00;100050.53;5098202;28;20107;-90
2023/04/01 03:21:54;;;;;;;9.38;4.05;;;;;;;5.42;100.00;100011.94;5096954;28;20157;-90
2023/04/01 03:24:21;;;;;;;10.95;2.78;;;;;;;5.51;100.00;100003.91;5100999;27;20088;-91
2023/04/01 03:26:48;;;;;;;16.92;2.90;;;;;;;5.45;100.00;99989.34;5108269;28;20097;-90
2023/04/01 03:29:15;;;;;;;12.93;2.60;;;;;;;5.61;100.00;100014.84;5084339;28;20055;-91
2023/04/01 03:31:42;;;;;;;16.25;3.05;;;;;;;5.84;100.00;100055.75;5098311;28;20051;-92
2023/04/01 03:34:09;;;;;;;9.50;2.40;;;;;;;5.87;100.00;100061.72;5098652;28;20092;-91
2023/04/01 03:36:36;;;;;;;7.70;2.03;;;;;;;5.79;100.00;100050.72;5098517;28;20480;-91
2023/04/01 03:39:03;;;;;;;10.05;2.38;;;;;;;5.97;100.00;100079.69;5098048;28;20507;-91
2023/04/01 03:41:30;;;;;;;12.13;2.78;;;;;;;5.73;100.00;100045.69;5096493;28;20051;-91
2023/04/01 03:43:57;;;;;;;12.63;3.03;;;;;;;5.73;100.00;100043.09;5098192;28;20043;-91
2023/04/01 03:46:24;;;;;;;15.10;3.25;;;;;;;5.94;100.00;100061.56;5098035;28;20465;-91
2023/04/01 03:48:51;;;;;;;9.90;2.70;;;;;;;5.81;100.00;100048.06;5097371;28;20537;-91
2023/04/01 03:51:17;;;;;;;14.63;3.45;;;;;;;5.77;100.00;100059.44;5097150;28;20373;-91
2023/04/01 03:53:44;;;;;;;14.27;3.13;;;;;;;5.73;100.00;100050.03;5097704;28;20047;-92
2023/04/01 03:56:11;;;;;;;9.95;2.15;;;;;;;5.80;100.00;100051.56;5097647;28;20051;-91
2023/04/01 03:58:38;;;;;;;13.68;3.03;;;;;;;5.56;100.00;100012.41;5102986;27;20092;-92
2023/04/01 04:01:20;;;;;;;13.80;2.50;;;;;;;5.83;100.00;100057.50;5104479;28;20077;-91
2023/04/01 04:03:49;;;;;;;8.98;3.08;;;;;;;5.63;100.00;100032.13;5097526;28;20048;-91
2023/04/01 04:06:18;;;;;;;11.57;3.08;;;;;;;6.07;100.00;100101.91;5097569;28;20051;-91
2023/04/01 04:08:45;;;;;;;11.15;2.92;;;;;;;5.61;100.00;100020.94;5097696;28;20056;-91
2023/04/01 04:11:12;;;;;;;17.25;2.75;;;;;;;5.85;100.00;100067.88;5096869;28;20059;-91
2023/04/01 04:13:39;;;;;;;11.27;3.00;;;;;;;6.00;100.00;100092.56;5114483;28;20096;-88
2023/04/01 04:16:06;;;;;;;11.70;2.65;;;;;;;5.88;100.00;100071.22;5096331;28;20051;-89
2023/04/01 04:18:33;;;;;;;8.25;2.50;;;;;;;5.92;100.00;100069.38;5096418;28;20117;-89
2023/04/01 04:21:00;;;;;;;17.02;2.90;;;;;;;6.10;100.00;100108.78;5095904;28;20055;-89
2023/04/01 04:23:28;;;;;;;11.00;2.60;;;;;;;6.07;100.00;100092.38;5096553;28;20047;-88
2023/04/01 04:25:58;;;;;;;10.63;2.85;;;;;;;5.70;100.00;100045.75;5096550;28;20445;-88
2023/04/01 04:28:26;;;;;;;16.73;3.75;;;;;;;6.01;100.00;100102.09;5095593;28;20093;-88
2023/04/01 04:30:54;;;;;;;19.33;4.18;;;;;;;5.95;100.00;100104.81;5094187;28;20412;-88
2023/04/01 04:33:22;;;;;;;10.07;2.53;;;;;;;6.02;100.00;100120.25;5096297;28;20048;-91
2023/04/01 04:35:49;;;;;;;18.45;3.15;;;;;;;5.93;100.00;100099.66;5097250;28;20055;-91
2023/04/01 04:38:16;;;;;;;10.73;3.30;;;;;;;5.97;100.00;100122.13;5097287;28;20051;-91
2023/04/01 04:40:43;;;;;;;13.23;2.90;;;;;;;5.98;100.00;100116.00;5096571;28;20092;-91
2023/04/01 04:43:12;;;;;;;10.32;3.08;;;;;;;6.04;100.00;100128.84;5104058;27;20100;-91
2023/04/01 04:45:39;;;;;;;12.43;4.20;;;;;;;6.00;100.00;100144.56;5121785;27;20101;-91
2023/04/01 04:48:08;;;;;;;12.68;3.03;;;;;;;5.78;100.00;100106.16;5091459;28;20106;-91
2023/04/01 04:50:35;;;;;;;14.32;5.00;;;;;;;6.03;100.00;100145.31;5104557;28;20048;-91
2023/04/01 04:53:03;;;;;;;8.55;2.55;;;;;;;5.89;100.00;100140.47;5097126;28;20040;-91
2023/04/01 04:55:29;;;;;;;9.88;2.97;;;;;;;5.39;100.00;100062.19;5096923;28;20055;-91
2023/04/01 04:57:57;;;;;;;11.18;2.58;;;;;;;5.87;100.00;100125.81;5096936;28;20077;-90
2023/04/01 05:00:23;;;;;;;11.60;3.30;;;;;;;5.79;100.00;100110.47;5101703;28;20044;-91
2023/04/01 05:02:50;;;;;;;14.00;3.75;;;;;;;5.77;100.00;100117.44;5096652;28;20044;-91
2023/04/01 05:05:17;;;;;;;14.30;2.95;;;;;;;5.77;100.00;100116.56;5096471;28;20048;-92
2023/04/01 05:07:44;;;;;;;15.95;2.90;;;;;;;5.88;100.00;100132.75;5095792;28;20048;-92
2023/04/01 05:10:10;;;;;;;9.43;2.92;;;;;;;5.63;100.00;100098.78;5091814;28;20102;-91
2023/04/01 05:12:38;;;;;;;10.93;2.72;;;;;;;5.98;100.00;100151.53;5112938;28;20446;-90
2023/04/01 05:15:06;;;;;;;11.13;2.97;;;;;;;5.70;100.00;100113.28;5095816;28;20048;-91
2023/04/01 05:17:33;;;;;;;16.33;3.40;;;;;;;5.98;100.00;100172.34;5095524;28;20438;-92
2023/04/01 05:20:00;;;;;;;14.00;4.15;;;;;;;5.60;100.00;100115.31;5090234;28;20048;-90
2023/04/01 05:22:27;;;;;;;15.55;3.40;;;;;;;5.43;100.00;100094.13;5112383;28;20537;-91
2023/04/01 05:24:53;;;;;;;19.90;4.05;;;;;;;5.26;100.00;100060.84;5091750;28;20048;-91
2023/04/01 05:27:20;;;;;;;14.25;3.22;;;;;;;5.58;100.00;100116.22;5096201;28;20499;-90
2023/04/01 05:29:47;;;;;;;10.57;3.08;;;;;;;5.57;100.00;100112.78;5106965;28;20043;-91
2023/04/01 05:32:14;;;;;;;19.77;3.92;;;;;;;5.96;100.00;100189.72;5097807;28;20100;-90
2023/04/01 05:34:41;;;;;;;20.88;4.13;;;;;;;5.74;100.00;100164.28;5089178;28;20048;-91
2023/04/01 05:37:09;;;;;;;16.27;3.72;;;;;;;5.63;100.00;100125.63;5089780;28;20027;-91
2023/04/01 05:39:39;;;;;;;15.98;3.45;;;;;;;5.80;100.00;100152.88;5095040;28;20044;-90
2023/04/01 05:42:07;;;;;;;12.60;3.60;;;;;;;5.87;100.00;100162.19;5094301;28;20051;-88
2023/04/01 05:44:34;;;;;;;16.08;3.55;;;;;;;5.90;100.00;100180.31;5105850;28;20054;-88
2023/04/01 05:47:03;;;;;;;17.77;4.43;;;;;;;5.91;100.00;100210.59;5113333;28;20100;-88
2023/04/01 05:49:30;;;;;;;19.08;4.15;;;;;;;5.88;100.00;100208.09;5094644;28;20051;-89
2023/04/01 05:51:57;;;;;;;16.63;5.13;;;;;;;5.86;100.00;100178.66;5097329;28;20047;-88
2023/04/01 05:54:24;;;;;;;14.52;3.83;;;;;;;5.51;100.00;100136.34;5095222;28;20043;-87
2023/04/01 05:56:51;;;;;;;15.60;3.53;;;;;;;5.73;100.00;100172.13;5088731;28;20079;-89
2023/04/01 05:59:17;;;;;;;16.27;3.75;;;;;;;5.55;100.00;100148.34;5107046;28;20103;-90
2023/04/01 06:01:44;;;;;;;20.73;4.85;;;;;;;5.65;100.00;100154.16;5094035;28;20055;-91
2023/04/01 06:04:15;;;;;;;16.85;3.75;;;;;;;5.49;100.00;100138.13;5099808;28;20069;-91
2023/04/01 06:06:42;;;;;;;19.05;4.53;;;;;;;5.88;100.00;100223.69;5099306;28;20449;-91
2023/04/01 06:09:25;;;;;;;17.88;3.58;;;;;;;5.75;100.00;100193.72;5102578;28;20052;-91
2023/04/01 06:12:07;;;;;;;10.25;3.22;;;;;;;6.13;100.00;100234.28;5098178;28;20051;-91
2023/04/01 06:15:22;;;;;;;17.13;3.05;;;;;;;5.85;100.00;100216.81;5099214;28;20039;-90
2023/04/01 06:18:02;;;;;;;23.55;4.43;;;;;;;5.96;100.00;100241.69;5089715;28;20561;-88
2023/04/01 06:21:00;;;;;;;19.52;3.65;;;;;;;5.48;100.00;100172.75;5097344;28;20043;-87
2023/04/01 06:23:53;;;;;;;18.00;5.20;;;;;;;6.03;100.00;100257.06;5086911;28;20046;-88
2023/04/01 06:26:57;;;;;;;24.98;4.82;;;;;;;5.94;100.00;100249.50;5058099;28;20075;-87
2023/04/01 06:30:01;;;;;;;15.73;3.95;;;;;;;6.06;100.00;100256.16;5100863;28;20039;-88
2023/04/01 06:32:31;;;;;;;18.08;4.75;;;;;;;6.12;100.00;100258.56;5099386;28;20105;-89
2023/04/01 06:35:10;;;;;;;17.10;4.70;;;;;;;6.11;100.00;100262.09;5098551;28;20034;-88
2023/04/01 06:37:45;;;;;;;14.98;4.07;;;;;;;6.12;100.00;100261.16;5098021;28;20032;-87
2023/04/01 06:40:46;;;;;;;19.55;4.45;;;;;;;6.15;100.00;100262.84;5091285;28;20044;-88
2023/04/01 06:43:54;;;;;;;13.05;3.67;;;;;;;6.16;100.00;100249.81;5090257;28;20116;-87
2023/04/01 06:46:52;;;;;;;16.17;3.13;;;;;;;6.27;100.00;100267.72;5091664;28;20048;-87
2023/04/01 06:49:47;;;;;;;19.23;4.10;;;;;;;6.15;100.00;100278.44;5093197;28;20043;-87
2023/04/01 06:52:26;;;;;;;29.77;5.35;;;;;;;5.63;100.00;100192.28;5092340;28;20430;-88
2023/04/01 06:55:04;;;;;;;21.60;5.32;;;;;;;5.90;100.00;100253.91;5115333;28;20101;-88
2023/04/01 06:57:41;;;;;;;19.90;5.43;;;;;;;5.91;100.00;100249.56;5114569;28;20048;-88
2023/04/01 07:00:18;;;;;;;24.63;5.35;;;;;;;6.18;100.00;100283.53;5102526;28;20047;-88
2023/04/01 07:02:57;;;;;;;17.90;4.68;;;;;;;5.83;100.00;100254.13;5087000;28;20050;-89
2023/04/01 07:05:28;;;;;;;22.48;4.10;;;;;;;5.86;100.00;100261.81;5096207;28;20058;-89
2023/04/01 07:08:02;;;;;;;19.67;4.03;;;;;;;6.02;100.00;100277.91;5099259;28;20047;-90
2023/04/01 07:10:42;;;;;;;20.08;3.65;;;;;;;6.13;100.00;100295.84;5094283;28;20048;-86
2023/04/01 07:13:17;;;;;;;17.35;4.57;;;;;;;6.08;100.00;100265.59;5092601;28;20040;-87
2023/04/01 07:15:51;;;;;;;17.50;4.25;;;;;;;6.06;100.00;100262.19;5093361;28;20477;-87
2023/04/01 07:18:34;;;;;;;16.10;3.88;;;;;;;6.37;100.00;100307.31;5091464;28;20043;-86
2023/04/01 07:21:05;;;;;;;18.25;4.45;;;;;;;6.19;100.00;100283.50;5087847;28;20048;-86
2023/04/01 07:23:40;;;;;;;16.55;4.05;;;;;;;6.33;100.00;100318.69;5086908;28;20076;-86
2023/04/01 07:26:22;;;;;;;16.85;4.20;;;;;;;6.38;100.00;100325.47;5098036;28;20048;-86
2023/04/01 07:28:52;;;;;;;16.85;4.13;;;;;;;6.02;100.00;100299.56;5071037;28;20045;-86
2023/04/01 07:31:44;;;;;;;23.77;5.53;;;;;;;5.95;100.00;100268.53;5064001;28;20051;-86
2023/04/01 07:34:44;;;;;;;18.88;4.75;;;;;;;6.27;100.00;100299.75;5087617;28;20048;-86
2023/04/01 07:37:28;;;;;;;14.95;4.25;;;;;;;6.27;100.00;100310.16;5032148;28;20045;-87
2023/04/01 07:40:37;;;;;;;27.33;7.88;;;;;;;6.53;100.00;100344.16;5076836;28;20464;-87
2023/04/01 07:43:27;;;;;;;17.88;4.20;;;;;;;6.61;100.00;100347.41;5052265;28;20464;-87
2023/04/01 07:46:13;;;;;;;20.45;4.78;;;;;;;6.14;100.00;100298.38;5093803;28;20047;-87
2023/04/01 07:48:45;;;;;;;23.20;6.40;;;;;;;6.49;100.00;100355.56;5094557;28;20477;-87
2023/04/01 07:51:27;;;;;;;15.77;4.07;;;;;;;6.62;100.00;100354.31;5081639;28;20044;-86
2023/04/01 07:54:08;;;;;;;27.58;6.00;;;;;;;6.59;100.00;100373.47;5084605;28;20093;-85
2023/04/01 07:56:51;;;;;;;22.38;5.55;;;;;;;6.15;100.00;100343.44;5080472;28;20063;-86
2023/04/01 07:59:25;;;;;;;23.67;6.85;;;;;;;6.48;100.00;100383.31;5080133;28;20089;-85
2023/04/01 08:02:14;;;;;;;14.35;4.70;;;;;;;6.08;100.00;100288.16;5075413;28;20052;-85
2023/04/01 08:04:59;;;;;;;20.15;5.15;;;;;;;6.59;100.00;100381.28;5090950;28;20117;-86
2023/04/01 08:07:51;;;;;;;34.10;8.02;;;;;;;6.18;100.00;100349.41;5076176;28;20563;-86
2023/04/01 08:10:50;;;;;;;19.45;4.88;;;;;;;6.10;100.00;100299.34;5092705;28;20101;-86
2023/04/01 08:13:23;;;;;;;16.48;4.78;;;;;;;6.74;100.00;100392.16;5072914;28;20468;-86
2023/04/01 08:16:31;;;;;;;30.70;7.20;;;;;;;6.64;100.00;100395.00;5076215;28;20129;-86
2023/04/01 08:19:31;;;;;;;20.00;4.95;;;;;;;6.62;100.00;100403.72;5058413;28;20048;-86
2023/04/01 08:22:04;;;;;;;25.27;6.28;;;;;;;6.37;100.00;100374.91;5075731;28;20488;-86
2023/04/01 08:24:42;;;;;;;21.63;6.75;;;;;;;6.74;100.00;100413.81;5074886;28;20040;-86
2023/04/01 08:27:35;;;;;;;30.73;7.68;;;;;;;6.59;100.00;100428.09;5092221;28;20389;-85
2023/04/01 08:30:21;;;;;;;22.17;5.90;;;;;;;6.28;100.00;100383.81;5093510;28;20101;-86
2023/04/01 08:32:54;;;;;;;19.58;5.57;;;;;;;6.28;100.00;100376.00;5075370;28;20056;-85
2023/04/01 08:35:32;;;;;;;;;;;;;;;6.75;100.00;100432.91;5075452;28;20551;-86
2023/04/01 08:38:09;;;;;;;23.17;5.15;;;;;;;6.46;100.00;100411.09;5092554;28;19955;-85
2023/04/01 08:40:51;;;;;;;22.42;5.22;;;;;;;6.67;100.00;100443.50;5080786;28;20043;-85
2023/04/01 08:43:44;;;;;;;35.15;7.25;;;;;;;6.74;100.00;100444.19;5062536;28;20045;-85
2023/04/01 08:46:14;;;;;;;18.15;4.22;;;;;;;6.81;100.00;100448.34;5075460;28;20052;-85
2023/04/01 08:48:58;;;;;;;19.92;5.90;;;;;;;6.82;100.00;100457.88;5092695;28;20062;-86
2023/04/01 08:52:00;;;;;;;33.25;6.18;;;;;;;6.35;100.00;100416.56;5092261;28;20056;-86
2023/04/01 08:54:42;;;;;;;27.42;8.27;;;;;;;6.68;100.00;100468.63;5067732;28;20441;-85
2023/04/01 08:57:32;;;;;;;21.95;5.43;;;;;;;6.19;100.00;100420.44;5071178;28;20640;-86
2023/04/01 09:00:29;;;;;;;26.42;5.07;;;;;;;6.65;100.00;100468.69;5086434;28;20070;-86
2023/04/01 09:03:26;;;;;;;23.35;4.72;;;;;;;6.68;100.00;100480.78;5069031;28;20077;-85
2023/04/01 09:06:11;;;;;;;33.70;6.18;;;;;;;6.58;100.00;100483.59;5091461;28;20051;-85
2023/04/01 09:09:17;;;;;;;28.23;6.60;;;;;;;6.54;100.00;100499.34;5085902;28;20048;-85
2023/04/01 09:12:06;;;;;;;22.17;5.82;;;;;;;6.53;100.00;100500.22;5088627;28;20064;-86
2023/04/01 09:14:57;;;;;;;21.95;5.20;;;;;;;6.56;100.00;100494.97;5092128;28;20055;-85
2023/04/01 09:17:49;;;;;;;31.33;5.55;;;;;;;6.44;100.00;100512.56;5072489;28;20048;-85
2023/04/01 09:20:53;;;;;;;31.45;6.07;;;;;;;6.44;100.00;100515.16;5086783;28;20105;-85
2023/04/01 09:23:43;;;;;;;26.75;5.28;;;;;;;6.45;100.00;100514.28;5068874;28;20044;-86
2023/04/01 09:26:42;;;;;;;23.13;5.47;;;;;;;6.33;100.00;100524.13;5092698;28;20044;-87
2023/04/01 09:29:35;;;;;;;32.00;7.13;;;;;;;6.37;100.00;100520.53;5066630;28;20048;-85
2023/04/01 09:32:18;;;;;;;19.10;5.20;;;;;;;6.39;100.00;100535.25;5056699;28;20100;-85
2023/04/01 09:35:20;;;;;;;28.15;5.80;;;;;;;6.29;100.00;100517.28;5092545;28;20444;-86
2023/04/01 09:38:17;;;;;;;19.88;5.75;;;;;;;6.42;100.00;100539.50;5091835;28;20056;-86
2023/04/01 09:40:53;;;;;;;19.20;5.32;;;;;;;6.33;100.00;100547.53;5077841;28;20047;-85
2023/04/01 09:43:48;;;;;;;25.80;5.25;;;;;;;6.31;100.00;100544.09;5087327;28;20051;-85
2023/04/01 09:46:53;;;;;;;19.45;4.68;;;;;;;6.52;100.00;100543.59;5081821;28;20109;-86
2023/04/01 09:49:28;;;;;;;26.92;6.25;;;;;;;6.49;100.00;100548.88;5075364;28;20063;-87
2023/04/01 09:52:14;;;;;;;28.10;6.75;;;;;;;6.05;100.00;100493.56;5074101;28;20456;-85
2023/04/01 09:55:06;;;;;;;21.30;5.00;;;;;;;6.41;100.00;100554.25;5074882;28;20044;-85
2023/04/01 09:58:00;;;;;;;20.83;4.97;;;;;;;6.43;100.00;100559.44;5072775;28;20052;-85
2023/04/01 10:00:59;;;;;;;20.83;4.65;;;;;;;6.17;100.00;100497.63;5077975;28;20120;-85
2023/04/01 10:03:54;;;;;;;31.05;4.90;;;;;;;6.40;100.00;100562.09;5082623;28;20055;-85
2023/04/01 10:06:40;;;;;;;21.45;4.68;;;;;;;6.55;100.00;100569.53;5077663;28;20044;-86
2023/04/01 10:09:45;;;;;;;23.90;5.13;;;;;;;6.65;100.00;100573.63;5107902;28;20076;-84
2023/04/01 10:12:50;;;;;;;26.92;5.38;;;;;;;6.76;100.00;100575.09;5075389;28;20055;-86
2023/04/01 10:15:33;;;;;;;25.50;6.57;;;;;;;6.64;100.00;100565.88;5071987;28;20412;-87
2023/04/01 10:18:06;;;;;;;31.52;5.60;;;;;;;6.66;100.00;100584.91;5072602;28;20132;-87
2023/04/01 10:21:14;;;;;;;28.85;5.57;;;;;;;6.33;100.00;100565.72;5073176;28;20052;-87
2023/04/01 10:24:20;;;;;;;24.05;5.70;;;;;;;6.45;100.00;100600.09;5034140;28;20040;-87
2023/04/01 10:27:05;;;;;;;18.10;4.50;;;;;;;6.57;100.00;100600.69;5087024;28;20105;-86
2023/04/01 10:29:49;;;;;;;27.55;5.55;;;;;;;6.54;100.00;100606.84;5080435;28;20485;-86
2023/04/01 10:32:50;;;;;;;25.40;4.72;;;;;;;6.54;100.00;100600.78;5091146;28;20048;-86
2023/04/01 10:36:05;;;;;;;28.08;6.00;;;;;;;6.76;100.00;100617.59;5072602;28;20041;-86
2023/04/01 10:39:08;;;;;;;19.23;5.38;;;;;;;6.62;100.00;100620.53;5021609;28;20116;-86
2023/04/01 10:41:44;;;;;;;19.88;4.43;;;;;;;6.50;100.00;100617.34;5093186;28;20097;-85
2023/04/01 10:44:42;;;;;;;31.55;7.05;;;;;;;6.67;100.00;100628.22;5097589;28;20097;-84
2023/04/01 10:47:27;;;;;;;19.25;4.15;;;;;;;6.74;100.00;100636.75;5086519;28;20427;-85
2023/04/01 10:50:12;;;;;;;16.20;4.30;;;;;;;6.61;100.00;100631.81;5068489;28;20036;-85
2023/04/01 10:53:09;;;;;;;24.00;5.72;;;;;;;6.63;100.00;100637.00;5075120;28;20101;-87
2023/04/01 10:55:47;;;;;;;18.30;4.45;;;;;;;6.55;100.00;100650.19;5070643;28;20048;-88
2023/04/01 10:58:51;;;;;;;25.60;4.88;;;;;;;6.61;100.00;100651.78;5110314;28;20082;-89
2023/04/01 11:01:49;;;;;;;15.27;4.20;;;;;;;6.74;100.00;100653.22;5077772;28;20085;-87
2023/04/01 11:04:50;;;;;;;21.75;4.93;;;;;;;6.42;100.00;100626.19;5080394;28;20389;-89
2023/04/01 11:07:54;;;;;;;22.00;4.88;;;;;;;6.90;100.00;100671.94;5077697;28;20101;-89
2023/04/01 11:11:11;;;;;;;19.70;4.22;;;;;;;6.74;100.00;100671.41;5093569;28;20052;-88
2023/04/01 11:13:56;;;;;;;21.35;4.78;;;;;;;6.62;100.00;100675.19;5073203;28;20496;-89
2023/04/01 11:16:41;;;;;;;20.77;4.70;;;;;;;6.76;100.00;100684.41;5077589;28;20040;-89
2023/04/01 11:19:33;;;;;;;18.02;4.13;;;;;;;6.81;100.00;100688.59;5079152;28;20139;-88
2023/04/01 11:22:10;;;;;;;18.02;4.40;;;;;;;6.73;100.00;100689.66;5080103;28;20048;-88
2023/04/01 11:25:14;;;;;;;20.38;3.63;;;;;;;6.44;100.00;100606.19;5093950;28;20124;-89
2023/04/01 11:28:06;;;;;;;17.90;3.80;;;;;;;6.86;100.00;100700.69;5095469;28;20055;-89
2023/04/01 11:31:02;;;;;;;19.58;4.82;;;;;;;6.57;100.00;100678.75;5094317;28;20040;-88
2023/04/01 11:33:43;;;;;;;16.55;4.88;;;;;;;6.68;100.00;100668.97;5095190;28;20048;-88
2023/04/01 11:36:38;;;;;;;26.60;5.68;;;;;;;6.89;100.00;100714.47;5071817;28;20447;-88
2023/04/01 11:39:21;;;;;;;25.35;4.40;;;;;;;6.59;100.00;100677.00;5058446;28;20055;-88
2023/04/01 11:42:00;;;;;;;18.73;5.25;;;;;;;6.93;100.00;100725.69;5095235;28;20048;-88
2023/04/01 11:44:30;;;;;;;20.33;4.40;;;;;;;6.85;100.00;100733.63;5077070;28;20093;-88
2023/04/01 11:47:38;;;;;;;19.23;4.47;;;;;;;7.10;100.00;100725.28;5076975;28;20389;-89
2023/04/01 11:50:17;;;;;;;21.23;4.43;;;;;;;6.93;100.00;100734.34;5055386;28;20503;-88
2023/04/01 11:53:22;;;;;;;20.95;4.95;;;;;;;6.56;100.00;100683.09;5077468;28;20455;-88
2023/04/01 11:56:07;;;;;;;21.20;4.55;;;;;;;6.72;100.00;100712.25;5076207;28;20040;-90
2023/04/01 11:58:52;;;;;;;21.02;3.75;;;;;;;6.89;100.00;100750.03;5089154;28;20051;-89
2023/04/01 12:01:45;;;;;;;14.20;4.38;;;;;;;7.07;100.00;100743.59;5087253;28;20047;-89
2023/04/01 12:04:12;;;;;;;18.35;4.30;;;;;;;7.27;100.00;100756.13;5087232;28;20052;-86
2023/04/01 12:06:52;;;;;;;23.27;4.75;;;;;;;7.13;100.00;100757.31;5079260;28;20094;-86
2023/04/01 12:09:24;;;;;;;16.17;4.90;;;;;;;7.29;100.00;100770.81;5083993;28;20078;-87
2023/04/01 12:12:09;;;;;;;20.98;4.30;;;;;;;6.65;100.00;100680.28;5092796;28;20099;-86